sensor_id;sensor_type;location;lat;lon;timestamp;temperature;humidity
63371;DHT22;72561;48.336;14.472;2023-12-20T00:01:20;26.60;41.50
63371;DHT22;72561;48.336;14.472;2023-12-20T00:03:02;26.60;41.40
63371;DHT22;72561;48.336;14.472;2023-12-20T00:04:43;26.60;41.40
63371;DHT22;72561;48.336;14.472;2023-12-20T00:06:24;26.60;41.40
63371;DHT22;72561;48.336;14.472;2023-12-20T00:08:07;26.60;41.30
63371;DHT22;72561;48.336;14.472;2023-12-20T00:09:48;26.60;41.30
63371;DHT22;72561;48.336;14.472;2023-12-20T00:11:29;26.60;41.30
63371;DHT22;72561;48.336;14.472;2023-12-20T00:13:10;26.60;41.30
63371;DHT22;72561;48.336;14.472;2023-12-20T00:14:52;26.60;41.60
63371;DHT22;72561;48.336;14.472;2023-12-20T00:16:33;26.60;41.30
63371;DHT22;72561;48.336;14.472;2023-12-20T00:18:14;26.60;41.30
63371;DHT22;72561;48.336;14.472;2023-12-20T00:19:55;26.60;41.40
63371;DHT22;72561;48.336;14.472;2023-12-20T00:21:36;26.60;41.30
63371;DHT22;72561;48.336;14.472;2023-12-20T00:23:19;26.70;41.40
63371;DHT22;72561;48.336;14.472;2023-12-20T00:25:00;26.60;41.30
63371;DHT22;72561;48.336;14.472;2023-12-20T00:26:41;26.60;41.40
63371;DHT22;72561;48.336;14.472;2023-12-20T00:28:22;26.60;41.30
63371;DHT22;72561;48.336;14.472;2023-12-20T00:30:04;26.60;41.40
63371;DHT22;72561;48.336;14.472;2023-12-20T00:31:46;26.60;41.30
63371;DHT22;72561;48.336;14.472;2023-12-20T00:33:27;26.60;41.30
63371;DHT22;72561;48.336;14.472;2023-12-20T00:35:08;26.60;41.40
63371;DHT22;72561;48.336;14.472;2023-12-20T00:36:49;26.60;41.40
63371;DHT22;72561;48.336;14.472;2023-12-20T00:38:32;26.60;41.30
63371;DHT22;72561;48.336;14.472;2023-12-20T00:40:13;26.60;41.30
63371;DHT22;72561;48.336;14.472;2023-12-20T00:41:54;26.60;41.30
63371;DHT22;72561;48.336;14.472;2023-12-20T00:43:35;26.60;41.30
63371;DHT22;72561;48.336;14.472;2023-12-20T00:45:16;26.60;41.30
63371;DHT22;72561;48.336;14.472;2023-12-20T00:46:57;26.60;41.30
63371;DHT22;72561;48.336;14.472;2023-12-20T00:48:39;26.60;41.30
63371;DHT22;72561;48.336;14.472;2023-12-20T00:50:20;26.60;41.40
63371;DHT22;72561;48.336;14.472;2023-12-20T00:52:01;26.60;41.30
63371;DHT22;72561;48.336;14.472;2023-12-20T00:53:43;26.60;41.40
63371;DHT22;72561;48.336;14.472;2023-12-20T00:55:24;26.60;41.40
63371;DHT22;72561;48.336;14.472;2023-12-20T00:57:06;26.60;41.40
63371;DHT22;72561;48.336;14.472;2023-12-20T00:58:47;26.60;41.30
63371;DHT22;72561;48.336;14.472;2023-12-20T01:00:28;26.60;41.30
63371;DHT22;72561;48.336;14.472;2023-12-20T01:02:09;26.60;41.30
63371;DHT22;72561;48.336;14.472;2023-12-20T01:03:50;26.60;41.40
63371;DHT22;72561;48.336;14.472;2023-12-20T01:05:38;26.60;40.80
63371;DHT22;72561;48.336;14.472;2023-12-20T01:07:19;26.60;41.30
63371;DHT22;72561;48.336;14.472;2023-12-20T01:09:00;26.60;41.20
63371;DHT22;72561;48.336;14.472;2023-12-20T01:10:41;26.60;41.40
63371;DHT22;72561;48.336;14.472;2023-12-20T01:12:22;26.60;41.30
63371;DHT22;72561;48.336;14.472;2023-12-20T01:14:03;26.60;41.30
63371;DHT22;72561;48.336;14.472;2023-12-20T01:15:44;26.60;41.30
63371;DHT22;72561;48.336;14.472;2023-12-20T01:17:25;26.60;41.30
63371;DHT22;72561;48.336;14.472;2023-12-20T01:19:06;26.60;41.30
63371;DHT22;72561;48.336;14.472;2023-12-20T01:20:49;26.60;41.20
63371;DHT22;72561;48.336;14.472;2023-12-20T01:22:30;26.60;41.20
63371;DHT22;72561;48.336;14.472;2023-12-20T01:24:11;26.60;41.20
63371;DHT22;72561;48.336;14.472;2023-12-20T01:25:52;26.60;41.20
63371;DHT22;72561;48.336;14.472;2023-12-20T01:27:33;26.60;41.30
63371;DHT22;72561;48.336;14.472;2023-12-20T01:29:14;26.60;41.20
63371;DHT22;72561;48.336;14.472;2023-12-20T01:30:56;26.60;41.90
63371;DHT22;72561;48.336;14.472;2023-12-20T01:32:37;26.60;41.30
63371;DHT22;72561;48.336;14.472;2023-12-20T01:34:19;26.60;41.20
63371;DHT22;72561;48.336;14.472;2023-12-20T01:36:01;26.50;41.10
63371;DHT22;72561;48.336;14.472;2023-12-20T01:37:42;26.60;41.20
63371;DHT22;72561;48.336;14.472;2023-12-20T01:39:24;26.60;41.30
63371;DHT22;72561;48.336;14.472;2023-12-20T01:41:05;26.60;41.10
63371;DHT22;72561;48.336;14.472;2023-12-20T01:42:46;26.60;41.20
63371;DHT22;72561;48.336;14.472;2023-12-20T01:44:27;26.60;41.20
63371;DHT22;72561;48.336;14.472;2023-12-20T01:46:08;26.50;41.20
63371;DHT22;72561;48.336;14.472;2023-12-20T01:47:50;26.60;41.30
63371;DHT22;72561;48.336;14.472;2023-12-20T01:49:32;26.50;41.10
63371;DHT22;72561;48.336;14.472;2023-12-20T01:51:14;26.60;41.30
63371;DHT22;72561;48.336;14.472;2023-12-20T01:52:56;26.50;41.20
63371;DHT22;72561;48.336;14.472;2023-12-20T01:54:38;26.50;41.20
63371;DHT22;72561;48.336;14.472;2023-12-20T01:56:20;26.60;41.30
63371;DHT22;72561;48.336;14.472;2023-12-20T01:58:01;26.50;41.20
63371;DHT22;72561;48.336;14.472;2023-12-20T01:59:42;26.60;41.30
63371;DHT22;72561;48.336;14.472;2023-12-20T02:01:24;26.60;41.30
63371;DHT22;72561;48.336;14.472;2023-12-20T02:03:05;26.50;41.20
63371;DHT22;72561;48.336;14.472;2023-12-20T02:04:46;26.50;41.20
63371;DHT22;72561;48.336;14.472;2023-12-20T02:06:30;26.50;41.10
63371;DHT22;72561;48.336;14.472;2023-12-20T02:08:11;26.60;41.20
63371;DHT22;72561;48.336;14.472;2023-12-20T02:09:52;26.50;41.10
63371;DHT22;72561;48.336;14.472;2023-12-20T02:11:34;26.50;41.10
63371;DHT22;72561;48.336;14.472;2023-12-20T02:13:19;26.50;41.20
63371;DHT22;72561;48.336;14.472;2023-12-20T02:15:00;26.50;41.20
63371;DHT22;72561;48.336;14.472;2023-12-20T02:16:41;26.50;41.20
63371;DHT22;72561;48.336;14.472;2023-12-20T02:18:23;26.50;41.20
63371;DHT22;72561;48.336;14.472;2023-12-20T02:20:05;26.50;41.20
63371;DHT22;72561;48.336;14.472;2023-12-20T02:21:48;26.50;41.20
63371;DHT22;72561;48.336;14.472;2023-12-20T02:23:29;26.50;41.20
63371;DHT22;72561;48.336;14.472;2023-12-20T02:25:10;26.50;41.10
63371;DHT22;72561;48.336;14.472;2023-12-20T02:26:52;26.50;41.10
63371;DHT22;72561;48.336;14.472;2023-12-20T02:28:33;26.50;41.00
63371;DHT22;72561;48.336;14.472;2023-12-20T02:30:15;26.50;41.10
63371;DHT22;72561;48.336;14.472;2023-12-20T02:31:56;26.50;41.10
63371;DHT22;72561;48.336;14.472;2023-12-20T02:33:37;26.50;41.00
63371;DHT22;72561;48.336;14.472;2023-12-20T02:35:18;26.50;41.10
63371;DHT22;72561;48.336;14.472;2023-12-20T02:37:01;26.50;41.70
63371;DHT22;72561;48.336;14.472;2023-12-20T02:38:43;26.50;41.10
63371;DHT22;72561;48.336;14.472;2023-12-20T02:40:24;26.50;41.10
63371;DHT22;72561;48.336;14.472;2023-12-20T02:42:05;26.50;41.10
63371;DHT22;72561;48.336;14.472;2023-12-20T02:43:46;26.50;40.90
63371;DHT22;72561;48.336;14.472;2023-12-20T02:45:27;26.50;41.00
63371;DHT22;72561;48.336;14.472;2023-12-20T02:47:08;26.50;41.00
63371;DHT22;72561;48.336;14.472;2023-12-20T02:48:49;26.50;40.90
63371;DHT22;72561;48.336;14.472;2023-12-20T02:50:30;26.50;41.10
63371;DHT22;72561;48.336;14.472;2023-12-20T02:52:13;26.50;41.10
63371;DHT22;72561;48.336;14.472;2023-12-20T02:53:54;26.50;41.10
63371;DHT22;72561;48.336;14.472;2023-12-20T02:55:35;26.50;41.10
63371;DHT22;72561;48.336;14.472;2023-12-20T02:57:16;26.50;41.10
63371;DHT22;72561;48.336;14.472;2023-12-20T02:58:57;26.50;41.10
63371;DHT22;72561;48.336;14.472;2023-12-20T03:00:38;26.50;41.10
63371;DHT22;72561;48.336;14.472;2023-12-20T03:02:20;26.50;41.10
63371;DHT22;72561;48.336;14.472;2023-12-20T03:04:01;26.50;41.20
63371;DHT22;72561;48.336;14.472;2023-12-20T03:05:42;26.50;41.10
63371;DHT22;72561;48.336;14.472;2023-12-20T03:07:25;26.50;41.10
63371;DHT22;72561;48.336;14.472;2023-12-20T03:09:06;26.50;41.20
63371;DHT22;72561;48.336;14.472;2023-12-20T03:10:47;26.50;41.10
63371;DHT22;72561;48.336;14.472;2023-12-20T03:12:29;26.50;41.10
63371;DHT22;72561;48.336;14.472;2023-12-20T03:14:10;26.50;41.20
63371;DHT22;72561;48.336;14.472;2023-12-20T03:15:51;26.50;41.20
63371;DHT22;72561;48.336;14.472;2023-12-20T03:17:32;26.50;41.20
63371;DHT22;72561;48.336;14.472;2023-12-20T03:19:13;26.50;41.20
63371;DHT22;72561;48.336;14.472;2023-12-20T03:20:54;26.50;41.20
63371;DHT22;72561;48.336;14.472;2023-12-20T03:22:37;26.50;41.20
63371;DHT22;72561;48.336;14.472;2023-12-20T03:24:18;26.50;41.20
63371;DHT22;72561;48.336;14.472;2023-12-20T03:25:59;26.50;41.10
63371;DHT22;72561;48.336;14.472;2023-12-20T03:27:40;26.50;41.10
63371;DHT22;72561;48.336;14.472;2023-12-20T03:29:22;26.50;41.80
63371;DHT22;72561;48.336;14.472;2023-12-20T03:31:03;26.50;41.10
63371;DHT22;72561;48.336;14.472;2023-12-20T03:32:44;26.50;41.10
63371;DHT22;72561;48.336;14.472;2023-12-20T03:34:26;26.50;41.20
63371;DHT22;72561;48.336;14.472;2023-12-20T03:36:07;26.50;41.10
63371;DHT22;72561;48.336;14.472;2023-12-20T03:37:50;26.50;41.10
63371;DHT22;72561;48.336;14.472;2023-12-20T03:39:31;26.50;41.10
63371;DHT22;72561;48.336;14.472;2023-12-20T03:41:12;26.50;41.20
63371;DHT22;72561;48.336;14.472;2023-12-20T03:42:54;26.50;41.20
63371;DHT22;72561;48.336;14.472;2023-12-20T03:44:38;26.50;41.20
63371;DHT22;72561;48.336;14.472;2023-12-20T03:46:19;26.50;41.20
63371;DHT22;72561;48.336;14.472;2023-12-20T03:48:00;26.50;41.10
63371;DHT22;72561;48.336;14.472;2023-12-20T03:49:41;26.50;41.10
63371;DHT22;72561;48.336;14.472;2023-12-20T03:51:22;26.50;41.10
63371;DHT22;72561;48.336;14.472;2023-12-20T03:53:05;26.50;41.10
63371;DHT22;72561;48.336;14.472;2023-12-20T03:54:46;26.50;41.80
63371;DHT22;72561;48.336;14.472;2023-12-20T03:56:27;26.50;41.10
63371;DHT22;72561;48.336;14.472;2023-12-20T03:58:08;26.50;41.20
63371;DHT22;72561;48.336;14.472;2023-12-20T03:59:49;26.50;41.10
63371;DHT22;72561;48.336;14.472;2023-12-20T04:01:31;26.50;41.20
63371;DHT22;72561;48.336;14.472;2023-12-20T04:03:12;26.50;41.20
63371;DHT22;72561;48.336;14.472;2023-12-20T04:04:53;26.40;41.20
63371;DHT22;72561;48.336;14.472;2023-12-20T04:06:34;26.50;41.20
63371;DHT22;72561;48.336;14.472;2023-12-20T04:08:17;26.40;41.00
63371;DHT22;72561;48.336;14.472;2023-12-20T04:09:58;26.50;41.20
63371;DHT22;72561;48.336;14.472;2023-12-20T04:11:39;26.40;41.10
63371;DHT22;72561;48.336;14.472;2023-12-20T04:13:20;26.40;41.20
63371;DHT22;72561;48.336;14.472;2023-12-20T04:15:01;26.50;41.20
63371;DHT22;72561;48.336;14.472;2023-12-20T04:16:42;26.40;41.20
63371;DHT22;72561;48.336;14.472;2023-12-20T04:18:23;26.40;41.20
63371;DHT22;72561;48.336;14.472;2023-12-20T04:20:05;26.40;41.10
63371;DHT22;72561;48.336;14.472;2023-12-20T04:21:48;26.40;41.20
63371;DHT22;72561;48.336;14.472;2023-12-20T04:23:30;26.50;41.20
63371;DHT22;72561;48.336;14.472;2023-12-20T04:25:11;26.50;41.10
63371;DHT22;72561;48.336;14.472;2023-12-20T04:26:52;26.50;41.10
63371;DHT22;72561;48.336;14.472;2023-12-20T04:28:34;26.40;41.20
63371;DHT22;72561;48.336;14.472;2023-12-20T04:30:15;26.50;41.30
63371;DHT22;72561;48.336;14.472;2023-12-20T04:31:56;26.40;41.10
63371;DHT22;72561;48.336;14.472;2023-12-20T04:33:37;26.40;41.10
63371;DHT22;72561;48.336;14.472;2023-12-20T04:35:18;26.50;41.20
63371;DHT22;72561;48.336;14.472;2023-12-20T04:36:59;26.40;41.00
63371;DHT22;72561;48.336;14.472;2023-12-20T04:38:42;26.50;41.10
63371;DHT22;72561;48.336;14.472;2023-12-20T04:40:23;26.50;40.90
63371;DHT22;72561;48.336;14.472;2023-12-20T04:42:04;26.50;41.10
63371;DHT22;72561;48.336;14.472;2023-12-20T04:43:45;26.40;41.00
63371;DHT22;72561;48.336;14.472;2023-12-20T04:45:27;26.40;41.10
63371;DHT22;72561;48.336;14.472;2023-12-20T04:47:08;26.40;41.10
63371;DHT22;72561;48.336;14.472;2023-12-20T04:48:49;26.40;41.10
63371;DHT22;72561;48.336;14.472;2023-12-20T04:50:30;26.40;41.10
63371;DHT22;72561;48.336;14.472;2023-12-20T04:52:11;26.40;41.10
63371;DHT22;72561;48.336;14.472;2023-12-20T04:53:54;26.40;41.10
63371;DHT22;72561;48.336;14.472;2023-12-20T04:55:35;26.40;41.20
63371;DHT22;72561;48.336;14.472;2023-12-20T04:57:20;26.40;41.20
63371;DHT22;72561;48.336;14.472;2023-12-20T04:59:03;26.40;41.30
63371;DHT22;72561;48.336;14.472;2023-12-20T05:00:44;26.40;41.20
63371;DHT22;72561;48.336;14.472;2023-12-20T05:02:26;26.40;41.10
63371;DHT22;72561;48.336;14.472;2023-12-20T05:04:07;26.40;41.50
63371;DHT22;72561;48.336;14.472;2023-12-20T05:05:48;26.40;41.20
63371;DHT22;72561;48.336;14.472;2023-12-20T05:07:30;26.40;41.30
63371;DHT22;72561;48.336;14.472;2023-12-20T05:09:12;26.40;41.30
63371;DHT22;72561;48.336;14.472;2023-12-20T05:10:58;26.40;41.20
63371;DHT22;72561;48.336;14.472;2023-12-20T05:12:39;26.40;41.20
63371;DHT22;72561;48.336;14.472;2023-12-20T05:14:20;26.40;41.90
63371;DHT22;72561;48.336;14.472;2023-12-20T05:16:01;26.40;41.20
63371;DHT22;72561;48.336;14.472;2023-12-20T05:17:42;26.30;41.20
63371;DHT22;72561;48.336;14.472;2023-12-20T05:19:23;26.30;41.30
63371;DHT22;72561;48.336;14.472;2023-12-20T05:21:05;26.40;41.30
63371;DHT22;72561;48.336;14.472;2023-12-20T05:23:02;26.30;41.20
63371;DHT22;72561;48.336;14.472;2023-12-20T05:24:48;26.30;41.20
63371;DHT22;72561;48.336;14.472;2023-12-20T05:26:42;26.30;41.30
63371;DHT22;72561;48.336;14.472;2023-12-20T05:28:34;26.30;41.30
63371;DHT22;72561;48.336;14.472;2023-12-20T05:32:34;26.30;41.30
63371;DHT22;72561;48.336;14.472;2023-12-20T05:34:16;26.30;41.30
63371;DHT22;72561;48.336;14.472;2023-12-20T05:35:57;26.30;41.30
63371;DHT22;72561;48.336;14.472;2023-12-20T05:37:45;26.30;41.30
63371;DHT22;72561;48.336;14.472;2023-12-20T05:39:30;26.30;41.30
63371;DHT22;72561;48.336;14.472;2023-12-20T05:41:12;26.30;41.10
63371;DHT22;72561;48.336;14.472;2023-12-20T05:42:54;26.30;41.10
63371;DHT22;72561;48.336;14.472;2023-12-20T05:44:35;26.30;41.10
63371;DHT22;72561;48.336;14.472;2023-12-20T05:46:16;26.30;41.20
63371;DHT22;72561;48.336;14.472;2023-12-20T05:47:57;26.30;41.30
63371;DHT22;72561;48.336;14.472;2023-12-20T05:50:29;26.30;40.70
63371;DHT22;72561;48.336;14.472;2023-12-20T05:52:10;26.30;41.30
63371;DHT22;72561;48.336;14.472;2023-12-20T05:53:51;26.30;41.30
63371;DHT22;72561;48.336;14.472;2023-12-20T05:55:32;26.30;41.40
63371;DHT22;72561;48.336;14.472;2023-12-20T05:57:13;26.30;41.30
63371;DHT22;72561;48.336;14.472;2023-12-20T05:58:55;26.30;41.40
63371;DHT22;72561;48.336;14.472;2023-12-20T06:00:36;26.30;41.30
63371;DHT22;72561;48.336;14.472;2023-12-20T06:02:18;26.30;41.30
63371;DHT22;72561;48.336;14.472;2023-12-20T06:03:59;26.30;41.30
63371;DHT22;72561;48.336;14.472;2023-12-20T06:05:42;26.30;41.30
63371;DHT22;72561;48.336;14.472;2023-12-20T06:07:23;26.30;41.30
63371;DHT22;72561;48.336;14.472;2023-12-20T06:09:10;26.20;41.30
63371;DHT22;72561;48.336;14.472;2023-12-20T06:10:52;26.20;41.30
63371;DHT22;72561;48.336;14.472;2023-12-20T06:12:33;26.30;41.30
63371;DHT22;72561;48.336;14.472;2023-12-20T06:14:14;26.20;41.30
63371;DHT22;72561;48.336;14.472;2023-12-20T06:15:55;26.20;41.20
63371;DHT22;72561;48.336;14.472;2023-12-20T06:17:36;26.20;41.90
63371;DHT22;72561;48.336;14.472;2023-12-20T06:19:18;26.20;41.30
63371;DHT22;72561;48.336;14.472;2023-12-20T06:21:00;26.20;41.20
63371;DHT22;72561;48.336;14.472;2023-12-20T06:22:41;26.20;41.20
63371;DHT22;72561;48.336;14.472;2023-12-20T06:24:22;26.20;41.20
63371;DHT22;72561;48.336;14.472;2023-12-20T06:26:03;26.20;41.20
63371;DHT22;72561;48.336;14.472;2023-12-20T06:27:44;26.20;41.20
63371;DHT22;72561;48.336;14.472;2023-12-20T06:29:26;26.20;41.20
63371;DHT22;72561;48.336;14.472;2023-12-20T06:31:07;26.30;41.30
63371;DHT22;72561;48.336;14.472;2023-12-20T06:32:48;26.20;41.10
63371;DHT22;72561;48.336;14.472;2023-12-20T06:34:29;26.20;41.20
63371;DHT22;72561;48.336;14.472;2023-12-20T06:36:12;26.20;41.10
63371;DHT22;72561;48.336;14.472;2023-12-20T06:37:53;26.30;41.20
63371;DHT22;72561;48.336;14.472;2023-12-20T06:39:35;26.20;41.10
63371;DHT22;72561;48.336;14.472;2023-12-20T06:41:16;26.20;41.20
63371;DHT22;72561;48.336;14.472;2023-12-20T06:42:57;26.20;41.20
63371;DHT22;72561;48.336;14.472;2023-12-20T06:44:38;26.20;41.20
63371;DHT22;72561;48.336;14.472;2023-12-20T06:46:20;26.20;41.20
63371;DHT22;72561;48.336;14.472;2023-12-20T06:48:01;26.20;41.20
63371;DHT22;72561;48.336;14.472;2023-12-20T06:49:42;26.20;41.20
63371;DHT22;72561;48.336;14.472;2023-12-20T06:51:24;26.20;41.20
63371;DHT22;72561;48.336;14.472;2023-12-20T06:53:06;26.20;41.20
63371;DHT22;72561;48.336;14.472;2023-12-20T06:54:47;26.20;41.20
63371;DHT22;72561;48.336;14.472;2023-12-20T06:56:28;26.20;41.20
63371;DHT22;72561;48.336;14.472;2023-12-20T06:58:09;26.20;41.10
63371;DHT22;72561;48.336;14.472;2023-12-20T06:59:50;26.20;41.90
63371;DHT22;72561;48.336;14.472;2023-12-20T07:01:31;26.10;41.10
63371;DHT22;72561;48.336;14.472;2023-12-20T07:03:12;26.20;41.20
63371;DHT22;72561;48.336;14.472;2023-12-20T07:04:54;26.10;41.10
63371;DHT22;72561;48.336;14.472;2023-12-20T07:06:36;26.20;41.20
63371;DHT22;72561;48.336;14.472;2023-12-20T07:08:17;26.20;41.20
63371;DHT22;72561;48.336;14.472;2023-12-20T07:10:41;26.20;40.70
63371;DHT22;72561;48.336;14.472;2023-12-20T07:12:22;26.10;41.20
63371;DHT22;72561;48.336;14.472;2023-12-20T07:14:03;26.20;41.20
63371;DHT22;72561;48.336;14.472;2023-12-20T07:15:45;26.20;41.20
63371;DHT22;72561;48.336;14.472;2023-12-20T07:17:26;26.10;41.20
63371;DHT22;72561;48.336;14.472;2023-12-20T07:19:07;26.10;41.20
63371;DHT22;72561;48.336;14.472;2023-12-20T07:20:48;26.10;41.20
63371;DHT22;72561;48.336;14.472;2023-12-20T07:22:29;26.20;41.30
63371;DHT22;72561;48.336;14.472;2023-12-20T07:24:10;26.10;41.20
63371;DHT22;72561;48.336;14.472;2023-12-20T07:25:53;26.10;41.20
63371;DHT22;72561;48.336;14.472;2023-12-20T07:27:34;26.10;41.20
63371;DHT22;72561;48.336;14.472;2023-12-20T07:29:15;26.10;41.20
63371;DHT22;72561;48.336;14.472;2023-12-20T07:30:56;26.10;41.20
63371;DHT22;72561;48.336;14.472;2023-12-20T07:32:37;26.10;41.20
63371;DHT22;72561;48.336;14.472;2023-12-20T07:34:19;26.10;41.20
63371;DHT22;72561;48.336;14.472;2023-12-20T07:36:00;26.10;41.20
63371;DHT22;72561;48.336;14.472;2023-12-20T07:37:41;26.10;41.30
63371;DHT22;72561;48.336;14.472;2023-12-20T07:39:22;26.10;41.20
63371;DHT22;72561;48.336;14.472;2023-12-20T07:41:05;26.10;41.30
63371;DHT22;72561;48.336;14.472;2023-12-20T07:42:46;26.10;41.20
63371;DHT22;72561;48.336;14.472;2023-12-20T07:44:27;26.10;41.30
63371;DHT22;72561;48.336;14.472;2023-12-20T07:46:08;26.10;41.30
63371;DHT22;72561;48.336;14.472;2023-12-20T07:47:50;26.10;41.30
63371;DHT22;72561;48.336;14.472;2023-12-20T07:49:31;26.10;41.30
63371;DHT22;72561;48.336;14.472;2023-12-20T07:51:41;26.10;40.80
63371;DHT22;72561;48.336;14.472;2023-12-20T07:53:22;26.10;41.30
63371;DHT22;72561;48.336;14.472;2023-12-20T07:55:03;26.10;41.40
63371;DHT22;72561;48.336;14.472;2023-12-20T07:56:46;26.10;41.30
63371;DHT22;72561;48.336;14.472;2023-12-20T07:58:27;26.10;41.40
63371;DHT22;72561;48.336;14.472;2023-12-20T08:00:09;26.00;41.30
63371;DHT22;72561;48.336;14.472;2023-12-20T08:01:51;26.10;41.40
63371;DHT22;72561;48.336;14.472;2023-12-20T08:03:32;26.00;41.30
63371;DHT22;72561;48.336;14.472;2023-12-20T08:05:14;26.00;41.30
63371;DHT22;72561;48.336;14.472;2023-12-20T08:06:56;26.10;41.40
63371;DHT22;72561;48.336;14.472;2023-12-20T08:08:37;26.10;41.40
63371;DHT22;72561;48.336;14.472;2023-12-20T08:10:18;26.10;41.40
63371;DHT22;72561;48.336;14.472;2023-12-20T08:11:59;26.10;41.40
63371;DHT22;72561;48.336;14.472;2023-12-20T08:13:41;26.00;41.30
63371;DHT22;72561;48.336;14.472;2023-12-20T08:15:22;26.00;41.30
63371;DHT22;72561;48.336;14.472;2023-12-20T08:17:03;26.10;41.40
63371;DHT22;72561;48.336;14.472;2023-12-20T08:18:44;26.10;41.40
63371;DHT22;72561;48.336;14.472;2023-12-20T08:20:26;26.00;41.30
63371;DHT22;72561;48.336;14.472;2023-12-20T08:22:08;26.00;41.40
63371;DHT22;72561;48.336;14.472;2023-12-20T08:23:49;26.00;41.40
63371;DHT22;72561;48.336;14.472;2023-12-20T08:25:30;26.00;41.30
63371;DHT22;72561;48.336;14.472;2023-12-20T08:27:11;26.00;41.40
63371;DHT22;72561;48.336;14.472;2023-12-20T08:28:53;26.00;41.40
63371;DHT22;72561;48.336;14.472;2023-12-20T08:30:34;26.00;41.40
63371;DHT22;72561;48.336;14.472;2023-12-20T08:32:15;26.00;41.40
63371;DHT22;72561;48.336;14.472;2023-12-20T08:33:56;26.00;41.40
63371;DHT22;72561;48.336;14.472;2023-12-20T08:35:37;26.00;41.40
63371;DHT22;72561;48.336;14.472;2023-12-20T08:37:20;26.00;41.40
63371;DHT22;72561;48.336;14.472;2023-12-20T08:39:01;26.00;41.50
63371;DHT22;72561;48.336;14.472;2023-12-20T08:40:42;26.00;41.40
63371;DHT22;72561;48.336;14.472;2023-12-20T08:42:23;26.00;41.40
63371;DHT22;72561;48.336;14.472;2023-12-20T08:44:04;26.00;41.40
63371;DHT22;72561;48.336;14.472;2023-12-20T08:45:45;26.00;41.40
63371;DHT22;72561;48.336;14.472;2023-12-20T08:47:27;26.00;41.50
63371;DHT22;72561;48.336;14.472;2023-12-20T08:49:08;26.00;41.40
63371;DHT22;72561;48.336;14.472;2023-12-20T08:50:49;26.00;41.50
63371;DHT22;72561;48.336;14.472;2023-12-20T08:52:32;26.00;41.40
63371;DHT22;72561;48.336;14.472;2023-12-20T08:54:13;26.00;41.50
63371;DHT22;72561;48.336;14.472;2023-12-20T08:55:54;26.00;41.50
63371;DHT22;72561;48.336;14.472;2023-12-20T08:57:35;26.00;41.50
63371;DHT22;72561;48.336;14.472;2023-12-20T08:59:16;25.90;41.40
63371;DHT22;72561;48.336;14.472;2023-12-20T09:00:57;26.00;41.50
63371;DHT22;72561;48.336;14.472;2023-12-20T09:02:38;26.00;41.50
63371;DHT22;72561;48.336;14.472;2023-12-20T09:04:20;26.00;41.50
63371;DHT22;72561;48.336;14.472;2023-12-20T09:06:01;25.90;41.40
63371;DHT22;72561;48.336;14.472;2023-12-20T09:07:43;25.90;41.40
63371;DHT22;72561;48.336;14.472;2023-12-20T09:09:25;25.90;41.40
63371;DHT22;72561;48.336;14.472;2023-12-20T09:11:06;26.00;41.50
63371;DHT22;72561;48.336;14.472;2023-12-20T09:12:47;25.90;41.40
63371;DHT22;72561;48.336;14.472;2023-12-20T09:14:29;26.00;41.50
63371;DHT22;72561;48.336;14.472;2023-12-20T09:16:10;26.00;41.50
63371;DHT22;72561;48.336;14.472;2023-12-20T09:17:51;26.00;41.90
63371;DHT22;72561;48.336;14.472;2023-12-20T09:19:32;26.00;41.50
63371;DHT22;72561;48.336;14.472;2023-12-20T09:21:13;25.90;41.40
63371;DHT22;72561;48.336;14.472;2023-12-20T09:22:56;25.90;41.50
63371;DHT22;72561;48.336;14.472;2023-12-20T09:24:37;25.90;41.50
63371;DHT22;72561;48.336;14.472;2023-12-20T09:26:18;25.90;41.50
63371;DHT22;72561;48.336;14.472;2023-12-20T09:27:59;25.90;41.50
63371;DHT22;72561;48.336;14.472;2023-12-20T09:29:40;25.90;41.50
63371;DHT22;72561;48.336;14.472;2023-12-20T09:31:21;25.90;41.50
63371;DHT22;72561;48.336;14.472;2023-12-20T09:33:03;25.90;41.50
63371;DHT22;72561;48.336;14.472;2023-12-20T09:34:44;25.90;41.50
63371;DHT22;72561;48.336;14.472;2023-12-20T09:36:25;25.90;41.50
63371;DHT22;72561;48.336;14.472;2023-12-20T09:38:07;25.90;41.50
63371;DHT22;72561;48.336;14.472;2023-12-20T09:39:48;25.90;41.50
63371;DHT22;72561;48.336;14.472;2023-12-20T09:41:32;25.90;41.40
63371;DHT22;72561;48.336;14.472;2023-12-20T09:43:19;25.90;41.50
63371;DHT22;72561;48.336;14.472;2023-12-20T09:45:02;25.90;41.50
63371;DHT22;72561;48.336;14.472;2023-12-20T09:46:45;25.90;41.50
63371;DHT22;72561;48.336;14.472;2023-12-20T09:48:53;25.90;40.90
63371;DHT22;72561;48.336;14.472;2023-12-20T09:50:34;25.90;41.50
63371;DHT22;72561;48.336;14.472;2023-12-20T09:52:16;25.90;41.50
63371;DHT22;72561;48.336;14.472;2023-12-20T09:53:59;25.90;41.50
63371;DHT22;72561;48.336;14.472;2023-12-20T09:55:41;25.90;41.50
63371;DHT22;72561;48.336;14.472;2023-12-20T09:57:23;25.90;41.50
63371;DHT22;72561;48.336;14.472;2023-12-20T09:59:04;25.90;41.50
63371;DHT22;72561;48.336;14.472;2023-12-20T10:00:45;25.90;41.50
63371;DHT22;72561;48.336;14.472;2023-12-20T10:02:27;25.90;41.50
63371;DHT22;72561;48.336;14.472;2023-12-20T10:04:11;25.90;41.50
63371;DHT22;72561;48.336;14.472;2023-12-20T10:05:55;25.90;41.50
63371;DHT22;72561;48.336;14.472;2023-12-20T10:07:37;25.90;41.50
63371;DHT22;72561;48.336;14.472;2023-12-20T10:09:18;25.90;41.50
63371;DHT22;72561;48.336;14.472;2023-12-20T10:11:00;25.90;41.50
63371;DHT22;72561;48.336;14.472;2023-12-20T10:13:01;25.90;41.60
63371;DHT22;72561;48.336;14.472;2023-12-20T10:14:43;25.90;41.50
63371;DHT22;72561;48.336;14.472;2023-12-20T10:16:25;25.90;41.60
63371;DHT22;72561;48.336;14.472;2023-12-20T10:18:06;25.90;41.50
63371;DHT22;72561;48.336;14.472;2023-12-20T10:19:49;25.90;41.50
63371;DHT22;72561;48.336;14.472;2023-12-20T10:21:30;25.90;41.50
63371;DHT22;72561;48.336;14.472;2023-12-20T10:23:11;25.90;41.50
63371;DHT22;72561;48.336;14.472;2023-12-20T10:24:52;25.90;41.60
63371;DHT22;72561;48.336;14.472;2023-12-20T10:26:33;25.90;41.60
63371;DHT22;72561;48.336;14.472;2023-12-20T10:28:15;25.90;41.60
63371;DHT22;72561;48.336;14.472;2023-12-20T10:29:58;25.90;41.60
63371;DHT22;72561;48.336;14.472;2023-12-20T10:31:39;25.90;41.60
63371;DHT22;72561;48.336;14.472;2023-12-20T10:33:24;25.90;41.60
63371;DHT22;72561;48.336;14.472;2023-12-20T10:35:08;25.90;41.60
63371;DHT22;72561;48.336;14.472;2023-12-20T10:36:49;25.90;41.60